sensor_id;sensor_type;location;lat;lon;timestamp;P1;durP1;ratioP1;P2;durP2;ratioP2
32613;SDS011;19031;51.400;6.770;2022-08-19T00:01:16;3.00;;;0.50;;
32613;SDS011;19031;51.400;6.770;2022-08-19T00:03:42;0.45;;;0.40;;
32613;SDS011;19031;51.400;6.770;2022-08-19T00:06:08;1.23;;;0.32;;
32613;SDS011;19031;51.400;6.770;2022-08-19T00:08:34;0.35;;;0.20;;
32613;SDS011;19031;51.400;6.770;2022-08-19T00:11:00;1.00;;;0.70;;
32613;SDS011;19031;51.400;6.770;2022-08-19T00:13:26;1.30;;;0.75;;
32613;SDS011;19031;51.400;6.770;2022-08-19T00:15:53;1.65;;;0.63;;
32613;SDS011;19031;51.400;6.770;2022-08-19T00:18:23;0.75;;;0.75;;
32613;SDS011;19031;51.400;6.770;2022-08-19T00:20:49;0.43;;;0.43;;
32613;SDS011;19031;51.400;6.770;2022-08-19T00:23:15;2.05;;;0.45;;
32613;SDS011;19031;51.400;6.770;2022-08-19T00:25:41;0.30;;;0.20;;
32613;SDS011;19031;51.400;6.770;2022-08-19T00:28:06;1.02;;;0.60;;
32613;SDS011;19031;51.400;6.770;2022-08-19T00:30:32;0.22;;;0.22;;
32613;SDS011;19031;51.400;6.770;2022-08-19T00:32:57;0.52;;;0.32;;
32613;SDS011;19031;51.400;6.770;2022-08-19T00:35:23;1.42;;;0.85;;
32613;SDS011;19031;51.400;6.770;2022-08-19T00:37:52;0.55;;;0.30;;
32613;SDS011;19031;51.400;6.770;2022-08-19T00:40:17;0.70;;;0.60;;
32613;SDS011;19031;51.400;6.770;2022-08-19T00:42:44;0.38;;;0.38;;
32613;SDS011;19031;51.400;6.770;2022-08-19T00:45:12;0.52;;;0.35;;
32613;SDS011;19031;51.400;6.770;2022-08-19T00:47:42;0.65;;;0.55;;
32613;SDS011;19031;51.400;6.770;2022-08-19T00:50:10;0.55;;;0.55;;
32613;SDS011;19031;51.400;6.770;2022-08-19T00:52:40;1.65;;;0.55;;
32613;SDS011;19031;51.400;6.770;2022-08-19T00:55:10;2.83;;;0.57;;
32613;SDS011;19031;51.400;6.770;2022-08-19T00:57:41;1.52;;;0.43;;
32613;SDS011;19031;51.400;6.770;2022-08-19T01:00:11;0.25;;;0.25;;
32613;SDS011;19031;51.400;6.770;2022-08-19T01:02:40;0.47;;;0.35;;
32613;SDS011;19031;51.400;6.770;2022-08-19T01:05:08;0.57;;;0.32;;
32613;SDS011;19031;51.400;6.770;2022-08-19T01:07:37;0.45;;;0.35;;
32613;SDS011;19031;51.400;6.770;2022-08-19T01:10:05;0.95;;;0.82;;
32613;SDS011;19031;51.400;6.770;2022-08-19T01:12:38;0.68;;;0.60;;
32613;SDS011;19031;51.400;6.770;2022-08-19T01:15:08;0.98;;;0.63;;
32613;SDS011;19031;51.400;6.770;2022-08-19T01:17:36;0.28;;;0.28;;
32613;SDS011;19031;51.400;6.770;2022-08-19T01:20:05;1.40;;;0.98;;
32613;SDS011;19031;51.400;6.770;2022-08-19T01:22:34;0.77;;;0.50;;
32613;SDS011;19031;51.400;6.770;2022-08-19T01:25:07;0.40;;;0.40;;
32613;SDS011;19031;51.400;6.770;2022-08-19T01:27:39;0.47;;;0.47;;
32613;SDS011;19031;51.400;6.770;2022-08-19T01:30:08;0.32;;;0.15;;
32613;SDS011;19031;51.400;6.770;2022-08-19T01:32:35;0.52;;;0.52;;
32613;SDS011;19031;51.400;6.770;2022-08-19T01:35:02;0.43;;;0.43;;
32613;SDS011;19031;51.400;6.770;2022-08-19T01:37:28;0.50;;;0.50;;
32613;SDS011;19031;51.400;6.770;2022-08-19T01:39:55;0.10;;;0.10;;
32613;SDS011;19031;51.400;6.770;2022-08-19T01:42:21;4.05;;;0.65;;
32613;SDS011;19031;51.400;6.770;2022-08-19T01:44:47;1.55;;;0.40;;
32613;SDS011;19031;51.400;6.770;2022-08-19T01:47:12;0.90;;;0.52;;
32613;SDS011;19031;51.400;6.770;2022-08-19T01:49:38;0.30;;;0.30;;
32613;SDS011;19031;51.400;6.770;2022-08-19T01:52:04;0.50;;;0.50;;
32613;SDS011;19031;51.400;6.770;2022-08-19T01:54:30;0.98;;;0.85;;
32613;SDS011;19031;51.400;6.770;2022-08-19T01:57:03;0.10;;;0.10;;
32613;SDS011;19031;51.400;6.770;2022-08-19T01:59:33;0.65;;;0.47;;
32613;SDS011;19031;51.400;6.770;2022-08-19T02:02:01;0.65;;;0.65;;
32613;SDS011;19031;51.400;6.770;2022-08-19T02:04:29;0.38;;;0.30;;
32613;SDS011;19031;51.400;6.770;2022-08-19T02:06:54;1.77;;;0.52;;
32613;SDS011;19031;51.400;6.770;2022-08-19T02:09:20;1.13;;;0.65;;
32613;SDS011;19031;51.400;6.770;2022-08-19T02:11:45;0.90;;;0.55;;
32613;SDS011;19031;51.400;6.770;2022-08-19T02:14:11;0.75;;;0.60;;
32613;SDS011;19031;51.400;6.770;2022-08-19T02:16:38;1.15;;;0.93;;
32613;SDS011;19031;51.400;6.770;2022-08-19T02:19:05;0.43;;;0.40;;
32613;SDS011;19031;51.400;6.770;2022-08-19T02:21:31;0.40;;;0.40;;
32613;SDS011;19031;51.400;6.770;2022-08-19T02:23:57;0.65;;;0.50;;
32613;SDS011;19031;51.400;6.770;2022-08-19T02:26:23;0.28;;;0.28;;
32613;SDS011;19031;51.400;6.770;2022-08-19T02:28:51;0.50;;;0.43;;
32613;SDS011;19031;51.400;6.770;2022-08-19T02:31:19;0.65;;;0.43;;
32613;SDS011;19031;51.400;6.770;2022-08-19T02:33:46;0.85;;;0.57;;
32613;SDS011;19031;51.400;6.770;2022-08-19T02:36:13;0.75;;;0.75;;
32613;SDS011;19031;51.400;6.770;2022-08-19T02:38:40;1.08;;;1.00;;
32613;SDS011;19031;51.400;6.770;2022-08-19T02:41:07;3.40;;;1.13;;
32613;SDS011;19031;51.400;6.770;2022-08-19T02:43:38;0.32;;;0.32;;
32613;SDS011;19031;51.400;6.770;2022-08-19T02:46:12;0.47;;;0.40;;
32613;SDS011;19031;51.400;6.770;2022-08-19T02:48:49;0.85;;;0.57;;
32613;SDS011;19031;51.400;6.770;2022-08-19T02:51:17;0.45;;;0.45;;
32613;SDS011;19031;51.400;6.770;2022-08-19T02:54:03;0.40;;;0.40;;
32613;SDS011;19031;51.400;6.770;2022-08-19T02:56:29;1.23;;;0.95;;
32613;SDS011;19031;51.400;6.770;2022-08-19T02:58:56;0.40;;;0.40;;
32613;SDS011;19031;51.400;6.770;2022-08-19T03:01:32;0.40;;;0.40;;
32613;SDS011;19031;51.400;6.770;2022-08-19T03:03:59;1.08;;;0.47;;
32613;SDS011;19031;51.400;6.770;2022-08-19T03:06:26;1.52;;;0.32;;
32613;SDS011;19031;51.400;6.770;2022-08-19T03:08:53;0.88;;;0.43;;
32613;SDS011;19031;51.400;6.770;2022-08-19T03:11:30;0.52;;;0.52;;
32613;SDS011;19031;51.400;6.770;2022-08-19T03:13:57;0.30;;;0.22;;
32613;SDS011;19031;51.400;6.770;2022-08-19T03:16:24;0.38;;;0.38;;
32613;SDS011;19031;51.400;6.770;2022-08-19T03:18:51;0.73;;;0.45;;
32613;SDS011;19031;51.400;6.770;2022-08-19T03:21:22;1.10;;;0.90;;
32613;SDS011;19031;51.400;6.770;2022-08-19T03:23:50;1.10;;;0.75;;
32613;SDS011;19031;51.400;6.770;2022-08-19T03:26:19;0.75;;;0.45;;
32613;SDS011;19031;51.400;6.770;2022-08-19T03:28:45;0.35;;;0.35;;
32613;SDS011;19031;51.400;6.770;2022-08-19T03:31:14;0.63;;;0.40;;
32613;SDS011;19031;51.400;6.770;2022-08-19T03:33:47;1.02;;;0.45;;
32613;SDS011;19031;51.400;6.770;2022-08-19T03:36:18;0.45;;;0.45;;
32613;SDS011;19031;51.400;6.770;2022-08-19T03:38:47;0.70;;;0.68;;
32613;SDS011;19031;51.400;6.770;2022-08-19T03:41:19;0.30;;;0.30;;
32613;SDS011;19031;51.400;6.770;2022-08-19T03:43:46;1.42;;;0.40;;
32613;SDS011;19031;51.400;6.770;2022-08-19T03:46:14;0.45;;;0.32;;
32613;SDS011;19031;51.400;6.770;2022-08-19T03:48:45;0.68;;;0.45;;
32613;SDS011;19031;51.400;6.770;2022-08-19T03:51:19;0.15;;;0.13;;
32613;SDS011;19031;51.400;6.770;2022-08-19T03:53:47;0.47;;;0.47;;
32613;SDS011;19031;51.400;6.770;2022-08-19T03:56:13;1.70;;;0.60;;
32613;SDS011;19031;51.400;6.770;2022-08-19T03:58:39;0.88;;;0.55;;
32613;SDS011;19031;51.400;6.770;2022-08-19T04:01:13;0.80;;;0.80;;
32613;SDS011;19031;51.400;6.770;2022-08-19T04:03:40;0.70;;;0.35;;
32613;SDS011;19031;51.400;6.770;2022-08-19T04:06:14;0.68;;;0.52;;
32613;SDS011;19031;51.400;6.770;2022-08-19T04:08:46;0.73;;;0.60;;
32613;SDS011;19031;51.400;6.770;2022-08-19T04:11:13;0.25;;;0.25;;
32613;SDS011;19031;51.400;6.770;2022-08-19T04:13:41;1.15;;;1.05;;
32613;SDS011;19031;51.400;6.770;2022-08-19T04:16:10;0.50;;;0.50;;
32613;SDS011;19031;51.400;6.770;2022-08-19T04:18:36;0.30;;;0.30;;
32613;SDS011;19031;51.400;6.770;2022-08-19T04:21:03;0.50;;;0.50;;
32613;SDS011;19031;51.400;6.770;2022-08-19T04:23:30;0.43;;;0.32;;
32613;SDS011;19031;51.400;6.770;2022-08-19T04:25:56;0.75;;;0.65;;
32613;SDS011;19031;51.400;6.770;2022-08-19T04:28:22;3.53;;;1.60;;
32613;SDS011;19031;51.400;6.770;2022-08-19T04:30:50;1.35;;;0.60;;
32613;SDS011;19031;51.400;6.770;2022-08-19T04:33:18;0.30;;;0.30;;
32613;SDS011;19031;51.400;6.770;2022-08-19T04:35:47;1.02;;;0.77;;
32613;SDS011;19031;51.400;6.770;2022-08-19T04:38:14;0.88;;;0.70;;
32613;SDS011;19031;51.400;6.770;2022-08-19T04:40:51;1.17;;;0.90;;
32613;SDS011;19031;51.400;6.770;2022-08-19T04:43:36;1.45;;;0.60;;
32613;SDS011;19031;51.400;6.770;2022-08-19T04:46:07;0.20;;;0.15;;
32613;SDS011;19031;51.400;6.770;2022-08-19T04:48:35;0.38;;;0.38;;
32613;SDS011;19031;51.400;6.770;2022-08-19T04:51:05;0.88;;;0.57;;
32613;SDS011;19031;51.400;6.770;2022-08-19T04:53:33;0.50;;;0.50;;
32613;SDS011;19031;51.400;6.770;2022-08-19T04:56:03;0.80;;;0.40;;
32613;SDS011;19031;51.400;6.770;2022-08-19T04:58:39;0.70;;;0.68;;
32613;SDS011;19031;51.400;6.770;2022-08-19T05:01:13;2.67;;;2.15;;
32613;SDS011;19031;51.400;6.770;2022-08-19T05:03:41;0.68;;;0.68;;
32613;SDS011;19031;51.400;6.770;2022-08-19T05:06:08;0.68;;;0.68;;
32613;SDS011;19031;51.400;6.770;2022-08-19T05:08:37;0.45;;;0.32;;
32613;SDS011;19031;51.400;6.770;2022-08-19T05:11:10;0.80;;;0.80;;
32613;SDS011;19031;51.400;6.770;2022-08-19T05:13:45;1.63;;;0.85;;
32613;SDS011;19031;51.400;6.770;2022-08-19T05:16:13;0.95;;;0.50;;
32613;SDS011;19031;51.400;6.770;2022-08-19T05:18:41;1.77;;;0.65;;
32613;SDS011;19031;51.400;6.770;2022-08-19T05:21:26;0.43;;;0.43;;
32613;SDS011;19031;51.400;6.770;2022-08-19T05:24:11;1.55;;;1.08;;
32613;SDS011;19031;51.400;6.770;2022-08-19T05:26:40;1.55;;;0.73;;
32613;SDS011;19031;51.400;6.770;2022-08-19T05:29:08;0.32;;;0.32;;
32613;SDS011;19031;51.400;6.770;2022-08-19T05:31:35;0.10;;;0.10;;
32613;SDS011;19031;51.400;6.770;2022-08-19T05:34:03;1.83;;;0.88;;
32613;SDS011;19031;51.400;6.770;2022-08-19T05:36:33;1.27;;;1.02;;
32613;SDS011;19031;51.400;6.770;2022-08-19T05:39:09;0.90;;;0.90;;
32613;SDS011;19031;51.400;6.770;2022-08-19T05:41:44;0.43;;;0.43;;
32613;SDS011;19031;51.400;6.770;2022-08-19T05:44:13;1.38;;;0.73;;
32613;SDS011;19031;51.400;6.770;2022-08-19T05:46:39;2.15;;;1.27;;
32613;SDS011;19031;51.400;6.770;2022-08-19T05:49:07;1.40;;;1.30;;
32613;SDS011;19031;51.400;6.770;2022-08-19T05:51:34;2.42;;;1.27;;
32613;SDS011;19031;51.400;6.770;2022-08-19T05:54:02;0.60;;;0.60;;
32613;SDS011;19031;51.400;6.770;2022-08-19T05:56:29;1.58;;;1.17;;
32613;SDS011;19031;51.400;6.770;2022-08-19T05:58:56;2.20;;;2.00;;
32613;SDS011;19031;51.400;6.770;2022-08-19T06:01:24;2.60;;;1.58;;
32613;SDS011;19031;51.400;6.770;2022-08-19T06:03:50;2.78;;;2.15;;
32613;SDS011;19031;51.400;6.770;2022-08-19T06:06:16;2.45;;;1.90;;
32613;SDS011;19031;51.400;6.770;2022-08-19T06:08:42;3.35;;;1.85;;
32613;SDS011;19031;51.400;6.770;2022-08-19T06:13:57;4.65;;;1.65;;
32613;SDS011;19031;51.400;6.770;2022-08-19T06:16:27;5.03;;;2.53;;
32613;SDS011;19031;51.400;6.770;2022-08-19T06:18:54;5.82;;;2.35;;
32613;SDS011;19031;51.400;6.770;2022-08-19T06:21:22;2.70;;;1.92;;
32613;SDS011;19031;51.400;6.770;2022-08-19T06:23:50;2.97;;;2.38;;
32613;SDS011;19031;51.400;6.770;2022-08-19T06:26:17;5.70;;;2.85;;
32613;SDS011;19031;51.400;6.770;2022-08-19T06:28:44;3.75;;;3.00;;
32613;SDS011;19031;51.400;6.770;2022-08-19T06:31:19;2.50;;;2.03;;
32613;SDS011;19031;51.400;6.770;2022-08-19T06:33:46;7.55;;;4.55;;
32613;SDS011;19031;51.400;6.770;2022-08-19T06:36:20;5.40;;;3.80;;
32613;SDS011;19031;51.400;6.770;2022-08-19T06:38:55;6.22;;;3.38;;
32613;SDS011;19031;51.400;6.770;2022-08-19T06:41:24;4.38;;;3.33;;
32613;SDS011;19031;51.400;6.770;2022-08-19T06:43:51;4.60;;;2.75;;
32613;SDS011;19031;51.400;6.770;2022-08-19T06:46:17;6.03;;;3.22;;
32613;SDS011;19031;51.400;6.770;2022-08-19T06:48:46;3.05;;;2.53;;
32613;SDS011;19031;51.400;6.770;2022-08-19T06:51:14;7.35;;;4.05;;
32613;SDS011;19031;51.400;6.770;2022-08-19T06:53:42;6.72;;;4.25;;
32613;SDS011;19031;51.400;6.770;2022-08-19T06:56:12;4.05;;;3.28;;
32613;SDS011;19031;51.400;6.770;2022-08-19T06:58:39;4.60;;;2.92;;
32613;SDS011;19031;51.400;6.770;2022-08-19T07:01:05;5.30;;;3.70;;
32613;SDS011;19031;51.400;6.770;2022-08-19T07:03:32;6.03;;;3.50;;
32613;SDS011;19031;51.400;6.770;2022-08-19T07:06:06;6.57;;;4.75;;
32613;SDS011;19031;51.400;6.770;2022-08-19T07:08:35;3.92;;;3.05;;
32613;SDS011;19031;51.400;6.770;2022-08-19T07:11:06;6.30;;;4.43;;
32613;SDS011;19031;51.400;6.770;2022-08-19T07:13:33;3.40;;;3.10;;
32613;SDS011;19031;51.400;6.770;2022-08-19T07:16:08;6.93;;;4.63;;
32613;SDS011;19031;51.400;6.770;2022-08-19T07:18:37;4.72;;;3.42;;
32613;SDS011;19031;51.400;6.770;2022-08-19T07:21:05;3.40;;;2.63;;
32613;SDS011;19031;51.400;6.770;2022-08-19T07:23:43;3.90;;;3.47;;
32613;SDS011;19031;51.400;6.770;2022-08-19T07:26:17;3.50;;;2.63;;
32613;SDS011;19031;51.400;6.770;2022-08-19T07:28:48;4.60;;;2.55;;
32613;SDS011;19031;51.400;6.770;2022-08-19T07:31:16;5.10;;;2.95;;
32613;SDS011;19031;51.400;6.770;2022-08-19T07:33:44;3.88;;;2.00;;
32613;SDS011;19031;51.400;6.770;2022-08-19T07:36:13;6.55;;;2.58;;
32613;SDS011;19031;51.400;6.770;2022-08-19T07:38:41;3.42;;;2.38;;
32613;SDS011;19031;51.400;6.770;2022-08-19T07:41:13;4.00;;;2.67;;
32613;SDS011;19031;51.400;6.770;2022-08-19T07:43:41;3.25;;;2.42;;
32613;SDS011;19031;51.400;6.770;2022-08-19T07:46:08;3.75;;;2.58;;
32613;SDS011;19031;51.400;6.770;2022-08-19T07:48:34;6.35;;;3.88;;
32613;SDS011;19031;51.400;6.770;2022-08-19T07:51:01;4.15;;;3.00;;
32613;SDS011;19031;51.400;6.770;2022-08-19T07:53:29;6.97;;;3.35;;
32613;SDS011;19031;51.400;6.770;2022-08-19T07:55:56;3.22;;;2.40;;
32613;SDS011;19031;51.400;6.770;2022-08-19T07:58:28;3.95;;;3.13;;
32613;SDS011;19031;51.400;6.770;2022-08-19T08:00:55;2.97;;;1.80;;
32613;SDS011;19031;51.400;6.770;2022-08-19T08:03:22;3.22;;;2.20;;
32613;SDS011;19031;51.400;6.770;2022-08-19T08:06:08;1.90;;;1.40;;
32613;SDS011;19031;51.400;6.770;2022-08-19T08:08:53;3.05;;;1.65;;
32613;SDS011;19031;51.400;6.770;2022-08-19T08:11:39;2.87;;;1.63;;
32613;SDS011;19031;51.400;6.770;2022-08-19T08:14:22;6.70;;;2.40;;
32613;SDS011;19031;51.400;6.770;2022-08-19T08:16:51;3.20;;;1.47;;
32613;SDS011;19031;51.400;6.770;2022-08-19T08:19:18;2.42;;;1.52;;
32613;SDS011;19031;51.400;6.770;2022-08-19T08:21:45;2.55;;;1.83;;
32613;SDS011;19031;51.400;6.770;2022-08-19T08:24:12;2.33;;;1.92;;
32613;SDS011;19031;51.400;6.770;2022-08-19T08:26:38;3.15;;;2.03;;
32613;SDS011;19031;51.400;6.770;2022-08-19T08:29:04;4.22;;;1.63;;
32613;SDS011;19031;51.400;6.770;2022-08-19T08:31:32;4.45;;;1.95;;
32613;SDS011;19031;51.400;6.770;2022-08-19T08:33:59;2.58;;;1.55;;
32613;SDS011;19031;51.400;6.770;2022-08-19T08:36:25;2.50;;;1.58;;
32613;SDS011;19031;51.400;6.770;2022-08-19T08:38:50;2.42;;;1.75;;
32613;SDS011;19031;51.400;6.770;2022-08-19T08:41:22;2.40;;;1.67;;
32613;SDS011;19031;51.400;6.770;2022-08-19T08:44:02;1.20;;;1.08;;
32613;SDS011;19031;51.400;6.770;2022-08-19T08:46:43;2.40;;;1.88;;
32613;SDS011;19031;51.400;6.770;2022-08-19T08:52:11;3.60;;;0.98;;
32613;SDS011;19031;51.400;6.770;2022-08-19T08:54:50;2.80;;;2.33;;
32613;SDS011;19031;51.400;6.770;2022-08-19T08:57:20;3.53;;;1.98;;
32613;SDS011;19031;51.400;6.770;2022-08-19T08:59:48;2.70;;;1.45;;
32613;SDS011;19031;51.400;6.770;2022-08-19T09:02:17;2.72;;;1.48;;
32613;SDS011;19031;51.400;6.770;2022-08-19T09:04:43;2.97;;;2.03;;
32613;SDS011;19031;51.400;6.770;2022-08-19T09:07:18;3.63;;;2.53;;
32613;SDS011;19031;51.400;6.770;2022-08-19T09:09:52;3.97;;;2.75;;
32613;SDS011;19031;51.400;6.770;2022-08-19T09:12:27;3.22;;;1.83;;
32613;SDS011;19031;51.400;6.770;2022-08-19T09:14:58;2.85;;;1.55;;
32613;SDS011;19031;51.400;6.770;2022-08-19T09:17:29;4.18;;;1.80;;
32613;SDS011;19031;51.400;6.770;2022-08-19T09:19:57;2.40;;;1.77;;
32613;SDS011;19031;51.400;6.770;2022-08-19T09:22:29;2.27;;;1.67;;
32613;SDS011;19031;51.400;6.770;2022-08-19T09:24:55;3.25;;;1.98;;
32613;SDS011;19031;51.400;6.770;2022-08-19T09:27:21;2.38;;;1.35;;
32613;SDS011;19031;51.400;6.770;2022-08-19T09:29:49;5.82;;;1.80;;
32613;SDS011;19031;51.400;6.770;2022-08-19T09:32:15;2.85;;;2.17;;
32613;SDS011;19031;51.400;6.770;2022-08-19T09:34:42;2.50;;;1.45;;
32613;SDS011;19031;51.400;6.770;2022-08-19T09:37:08;4.13;;;2.22;;
32613;SDS011;19031;51.400;6.770;2022-08-19T09:39:34;4.93;;;1.90;;
32613;SDS011;19031;51.400;6.770;2022-08-19T09:41:59;4.05;;;2.42;;
32613;SDS011;19031;51.400;6.770;2022-08-19T09:44:25;3.50;;;1.95;;
32613;SDS011;19031;51.400;6.770;2022-08-19T09:46:51;2.92;;;1.88;;
32613;SDS011;19031;51.400;6.770;2022-08-19T09:49:17;4.10;;;2.15;;
32613;SDS011;19031;51.400;6.770;2022-08-19T09:51:44;4.90;;;2.95;;
32613;SDS011;19031;51.400;6.770;2022-08-19T09:54:12;5.60;;;2.63;;
32613;SDS011;19031;51.400;6.770;2022-08-19T09:56:39;2.53;;;2.15;;
32613;SDS011;19031;51.400;6.770;2022-08-19T09:59:05;4.68;;;2.75;;
32613;SDS011;19031;51.400;6.770;2022-08-19T10:01:31;2.70;;;2.25;;
32613;SDS011;19031;51.400;6.770;2022-08-19T10:03:58;3.60;;;1.98;;
32613;SDS011;19031;51.400;6.770;2022-08-19T10:06:25;4.03;;;1.98;;
32613;SDS011;19031;51.400;6.770;2022-08-19T10:08:55;6.03;;;2.13;;
32613;SDS011;19031;51.400;6.770;2022-08-19T10:11:21;2.83;;;1.70;;
32613;SDS011;19031;51.400;6.770;2022-08-19T10:13:46;3.10;;;2.08;;
32613;SDS011;19031;51.400;6.770;2022-08-19T10:16:14;3.08;;;2.13;;
32613;SDS011;19031;51.400;6.770;2022-08-19T10:18:43;4.10;;;2.25;;
32613;SDS011;19031;51.400;6.770;2022-08-19T10:23:37;3.42;;;2.08;;
32613;SDS011;19031;51.400;6.770;2022-08-19T10:26:05;4.07;;;2.55;;
32613;SDS011;19031;51.400;6.770;2022-08-19T10:28:35;2.85;;;2.08;;
32613;SDS011;19031;51.400;6.770;2022-08-19T10:31:08;6.13;;;1.98;;
32613;SDS011;19031;51.400;6.770;2022-08-19T10:33:39;2.92;;;1.60;;
32613;SDS011;19031;51.400;6.770;2022-08-19T10:36:07;4.25;;;2.30;;
32613;SDS011;19031;51.400;6.770;2022-08-19T10:38:42;4.60;;;2.60;;
32613;SDS011;19031;51.400;6.770;2022-08-19T10:41:11;3.55;;;1.83;;
32613;SDS011;19031;51.400;6.770;2022-08-19T10:43:58;2.38;;;1.77;;
32613;SDS011;19031;51.400;6.770;2022-08-19T10:46:26;3.28;;;2.28;;
32613;SDS011;19031;51.400;6.770;2022-08-19T10:48:53;2.05;;;1.40;;
32613;SDS011;19031;51.400;6.770;2022-08-19T10:51:19;1.95;;;1.20;;
32613;SDS011;19031;51.400;6.770;2022-08-19T10:54:05;3.47;;;1.35;;
32613;SDS011;19031;51.400;6.770;2022-08-19T10:56:31;2.72;;;1.40;;
32613;SDS011;19031;51.400;6.770;2022-08-19T10:59:16;2.78;;;1.67;;
32613;SDS011;19031;51.400;6.770;2022-08-19T11:01:52;1.20;;;1.10;;
32613;SDS011;19031;51.400;6.770;2022-08-19T11:04:23;2.10;;;1.60;;
32613;SDS011;19031;51.400;6.770;2022-08-19T11:06:49;1.98;;;1.50;;
32613;SDS011;19031;51.400;6.770;2022-08-19T11:09:16;2.55;;;1.40;;
32613;SDS011;19031;51.400;6.770;2022-08-19T11:11:43;1.90;;;1.33;;
32613;SDS011;19031;51.400;6.770;2022-08-19T11:14:10;2.53;;;1.75;;
32613;SDS011;19031;51.400;6.770;2022-08-19T11:16:38;2.17;;;1.65;;
32613;SDS011;19031;51.400;6.770;2022-08-19T11:19:05;1.20;;;0.68;;
32613;SDS011;19031;51.400;6.770;2022-08-19T11:21:36;1.70;;;1.42;;
32613;SDS011;19031;51.400;6.770;2022-08-19T11:24:08;3.65;;;1.88;;
32613;SDS011;19031;51.400;6.770;2022-08-19T11:26:45;1.80;;;0.90;;
32613;SDS011;19031;51.400;6.770;2022-08-19T11:29:14;2.28;;;1.00;;
32613;SDS011;19031;51.400;6.770;2022-08-19T11:31:41;1.20;;;0.85;;
32613;SDS011;19031;51.400;6.770;2022-08-19T11:34:10;2.50;;;0.85;;
32613;SDS011;19031;51.400;6.770;2022-08-19T11:36:39;1.80;;;1.15;;
32613;SDS011;19031;51.400;6.770;2022-08-19T11:39:06;1.40;;;0.95;;
32613;SDS011;19031;51.400;6.770;2022-08-19T11:41:32;1.08;;;0.80;;
32613;SDS011;19031;51.400;6.770;2022-08-19T11:43:59;1.02;;;0.90;;
32613;SDS011;19031;51.400;6.770;2022-08-19T11:46:25;1.02;;;0.60;;
32613;SDS011;19031;51.400;6.770;2022-08-19T11:48:58;0.75;;;0.57;;
32613;SDS011;19031;51.400;6.770;2022-08-19T11:51:26;1.00;;;0.77;;
32613;SDS011;19031;51.400;6.770;2022-08-19T11:53:56;1.00;;;0.70;;
32613;SDS011;19031;51.400;6.770;2022-08-19T11:56:23;1.23;;;0.63;;
32613;SDS011;19031;51.400;6.770;2022-08-19T11:58:50;1.10;;;0.98;;
32613;SDS011;19031;51.400;6.770;2022-08-19T12:01:18;1.33;;;0.60;;
32613;SDS011;19031;51.400;6.770;2022-08-19T12:03:46;1.80;;;0.70;;
32613;SDS011;19031;51.400;6.770;2022-08-19T12:06:15;2.05;;;1.15;;
32613;SDS011;19031;51.400;6.770;2022-08-19T12:08:44;1.17;;;0.50;;
32613;SDS011;19031;51.400;6.770;2022-08-19T12:11:10;1.38;;;0.68;;
32613;SDS011;19031;51.400;6.770;2022-08-19T12:13:38;1.88;;;0.68;;
32613;SDS011;19031;51.400;6.770;2022-08-19T12:16:08;0.80;;;0.73;;
32613;SDS011;19031;51.400;6.770;2022-08-19T12:18:37;1.70;;;0.88;;
32613;SDS011;19031;51.400;6.770;2022-08-19T12:21:03;0.93;;;0.70;;
32613;SDS011;19031;51.400;6.770;2022-08-19T12:23:29;1.30;;;0.60;;
32613;SDS011;19031;51.400;6.770;2022-08-19T12:25:54;1.75;;;0.70;;
32613;SDS011;19031;51.400;6.770;2022-08-19T12:28:22;1.15;;;0.63;;
32613;SDS011;19031;51.400;6.770;2022-08-19T12:30:50;1.38;;;0.73;;
32613;SDS011;19031;51.400;6.770;2022-08-19T12:33:16;0.80;;;0.40;;
32613;SDS011;19031;51.400;6.770;2022-08-19T12:35:43;0.93;;;0.90;;
32613;SDS011;19031;51.400;6.770;2022-08-19T12:38:11;2.00;;;0.57;;
32613;SDS011;19031;51.400;6.770;2022-08-19T12:40:38;1.15;;;0.70;;
32613;SDS011;19031;51.400;6.770;2022-08-19T12:43:05;0.88;;;0.77;;
32613;SDS011;19031;51.400;6.770;2022-08-19T12:45:34;0.82;;;0.50;;
32613;SDS011;19031;51.400;6.770;2022-08-19T12:48:00;0.60;;;0.50;;
32613;SDS011;19031;51.400;6.770;2022-08-19T12:50:26;0.93;;;0.65;;
32613;SDS011;19031;51.400;6.770;2022-08-19T12:52:51;0.52;;;0.40;;
32613;SDS011;19031;51.400;6.770;2022-08-19T12:55:17;0.93;;;0.57;;
32613;SDS011;19031;51.400;6.770;2022-08-19T12:57:44;1.95;;;0.57;;
32613;SDS011;19031;51.400;6.770;2022-08-19T13:00:15;2.53;;;1.00;;
32613;SDS011;19031;51.400;6.770;2022-08-19T13:02:45;0.63;;;0.50;;
32613;SDS011;19031;51.400;6.770;2022-08-19T13:05:16;1.58;;;0.70;;
32613;SDS011;19031;51.400;6.770;2022-08-19T13:07:48;0.45;;;0.35;;
32613;SDS011;19031;51.400;6.770;2022-08-19T13:10:15;0.75;;;0.43;;
32613;SDS011;19031;51.400;6.770;2022-08-19T13:12:43;0.75;;;0.47;;
32613;SDS011;19031;51.400;6.770;2022-08-19T13:15:11;0.47;;;0.47;;
32613;SDS011;19031;51.400;6.770;2022-08-19T13:17:37;0.60;;;0.40;;
32613;SDS011;19031;51.400;6.770;2022-08-19T13:20:04;0.80;;;0.55;;
32613;SDS011;19031;51.400;6.770;2022-08-19T13:22:32;1.23;;;0.90;;
32613;SDS011;19031;51.400;6.770;2022-08-19T13:24:58;0.80;;;0.77;;
32613;SDS011;19031;51.400;6.770;2022-08-19T13:27:24;1.60;;;0.63;;
32613;SDS011;19031;51.400;6.770;2022-08-19T13:29:49;1.08;;;0.70;;
32613;SDS011;19031;51.400;6.770;2022-08-19T13:35:18;0.88;;;0.75;;
32613;SDS011;19031;51.400;6.770;2022-08-19T13:37:43;0.98;;;0.40;;
32613;SDS011;19031;51.400;6.770;2022-08-19T13:40:20;0.43;;;0.28;;
32613;SDS011;19031;51.400;6.770;2022-08-19T13:42:50;0.40;;;0.40;;
32613;SDS011;19031;51.400;6.770;2022-08-19T13:45:17;1.08;;;0.70;;
32613;SDS011;19031;51.400;6.770;2022-08-19T13:47:51;0.63;;;0.52;;
32613;SDS011;19031;51.400;6.770;2022-08-19T13:52:46;0.52;;;0.40;;
32613;SDS011;19031;51.400;6.770;2022-08-19T13:55:13;0.30;;;0.30;;
32613;SDS011;19031;51.400;6.770;2022-08-19T13:57:40;0.57;;;0.55;;
32613;SDS011;19031;51.400;6.770;2022-08-19T14:00:11;1.35;;;0.40;;
32613;SDS011;19031;51.400;6.770;2022-08-19T14:02:39;0.88;;;0.60;;
32613;SDS011;19031;51.400;6.770;2022-08-19T14:05:06;0.32;;;0.32;;
32613;SDS011;19031;51.400;6.770;2022-08-19T14:07:33;0.85;;;0.60;;
32613;SDS011;19031;51.400;6.770;2022-08-19T14:09:59;0.50;;;0.40;;
32613;SDS011;19031;51.400;6.770;2022-08-19T14:12:25;0.98;;;0.70;;
32613;SDS011;19031;51.400;6.770;2022-08-19T14:14:50;1.30;;;0.60;;
32613;SDS011;19031;51.400;6.770;2022-08-19T14:17:16;0.70;;;0.60;;
32613;SDS011;19031;51.400;6.770;2022-08-19T14:19:42;1.00;;;0.70;;
32613;SDS011;19031;51.400;6.770;2022-08-19T14:22:08;0.65;;;0.30;;
32613;SDS011;19031;51.400;6.770;2022-08-19T14:24:34;0.30;;;0.28;;
32613;SDS011;19031;51.400;6.770;2022-08-19T14:27:02;0.88;;;0.63;;
32613;SDS011;19031;51.400;6.770;2022-08-19T14:29:28;0.55;;;0.55;;
32613;SDS011;19031;51.400;6.770;2022-08-19T14:31:54;1.27;;;0.60;;
32613;SDS011;19031;51.400;6.770;2022-08-19T14:34:21;1.15;;;0.70;;
32613;SDS011;19031;51.400;6.770;2022-08-19T14:36:47;1.00;;;0.70;;
32613;SDS011;19031;51.400;6.770;2022-08-19T14:39:13;1.08;;;0.57;;
32613;SDS011;19031;51.400;6.770;2022-08-19T14:41:39;0.75;;;0.52;;
32613;SDS011;19031;51.400;6.770;2022-08-19T14:44:05;3.60;;;0.45;;
32613;SDS011;19031;51.400;6.770;2022-08-19T14:46:31;1.38;;;0.55;;
32613;SDS011;19031;51.400;6.770;2022-08-19T14:48:57;0.40;;;0.40;;
32613;SDS011;19031;51.400;6.770;2022-08-19T14:51:24;0.40;;;0.40;;
32613;SDS011;19031;51.400;6.770;2022-08-19T14:53:51;1.40;;;0.32;;
32613;SDS011;19031;51.400;6.770;2022-08-19T14:56:19;0.82;;;0.50;;
32613;SDS011;19031;51.400;6.770;2022-08-19T14:58:47;0.32;;;0.30;;
32613;SDS011;19031;51.400;6.770;2022-08-19T15:01:16;0.70;;;0.30;;
32613;SDS011;19031;51.400;6.770;2022-08-19T15:03:43;1.55;;;1.02;;
32613;SDS011;19031;51.400;6.770;2022-08-19T15:06:08;0.63;;;0.40;;
32613;SDS011;19031;51.400;6.770;2022-08-19T15:08:35;0.47;;;0.40;;
32613;SDS011;19031;51.400;6.770;2022-08-19T15:11:06;1.13;;;0.73;;